Alba, Missouri
Current Conditions -  °F | °C
As of 10:53 PM on Friday 21 Nov 2014 (Local Time) from KJLN Reporting Station
Light Rain Light Rain  
Wind Chill: 13°   Ceiling: 1100
Heat Index: 13°   Visibility: 10mi
Dew Point: 11°   Wind: 17mph
Humidity: 86%   Direction: 170°S
Pressure: 30.1"   Gusts: 23mph
Location:  37.24°N, 94.42°W
Report Text: KJLN 220453Z AUTO 17015G20KT 10SM -RA OVC011 13/11 A3010 RMK AO2 RAB45 SLP192 P0000 T01280106
Loading
Personal Weather Stations






























Interactive Weather Map New forecast layout! Learn more

10-Day Weather Forecast

Advertisements
Track Severe Weather on mobile